Time;durP1;ratioP1;P1;durP2;ratioP2;P2;SDS_P1;SDS_P2;PMS_P1;PMS_P2;Temp;Humidity;BMP_temperature;BMP_pressure;BME280_temperature;BME280_humidity;BME280_pressure;Samples;Min_cycle;Max_cycle;Signal;HPM_P1;HPM_P2
2021/08/28 00:02:05;;;;;;;10.00;4.40;;;;;;;;;;5025864;28;20128;-68
2021/08/28 00:04:33;;;;;;;11.05;5.72;;;;;;;;;;5020024;28;20393;-66
2021/08/28 00:06:58;;;;;;;9.68;4.95;;;;;;;;;;5025915;28;20657;-67
2021/08/28 00:09:23;;;;;;;7.57;4.68;;;;;;;;;;5027306;28;20037;-68
2021/08/28 00:11:48;;;;;;;6.85;4.47;;;;;;;;;;5024321;28;20029;-66
2021/08/28 00:14:14;;;;;;;9.55;4.30;;;;;;;;;;5022871;28;20034;-69
2021/08/28 00:16:39;;;;;;;7.22;3.60;;;;;;;;;;5020415;28;20054;-68
2021/08/28 00:19:04;;;;;;;6.22;4.10;;;;;;;;;;5027464;28;20546;-69
2021/08/28 00:21:29;;;;;;;7.63;4.93;;;;;;;;;;5028123;28;20029;-64
2021/08/28 00:23:54;;;;;;;7.55;4.43;;;;;;;;;;5020270;28;20098;-63
2021/08/28 00:26:19;;;;;;;6.65;4.32;;;;;;;;;;5019724;28;20374;-64
2021/08/28 00:28:45;;;;;;;9.32;4.80;;;;;;;;;;5028740;28;20010;-64
2021/08/28 00:31:10;;;;;;;9.55;4.68;;;;;;;;;;5020748;28;20492;-64
2021/08/28 00:33:35;;;;;;;8.38;4.65;;;;;;;;;;5021775;28;20013;-65
2021/08/28 00:36:00;;;;;;;7.90;4.50;;;;;;;;;;5022658;28;20037;-64
2021/08/28 00:38:25;;;;;;;8.30;4.60;;;;;;;;;;5019139;28;20621;-65
2021/08/28 00:40:51;;;;;;;10.13;4.70;;;;;;;;;;5026278;28;20409;-64
2021/08/28 00:43:16;;;;;;;7.00;4.90;;;;;;;;;;5020943;28;20020;-65
2021/08/28 00:45:43;;;;;;;8.90;5.13;;;;;;;;;;5021200;28;20092;-64
2021/08/28 00:48:09;;;;;;;7.55;4.57;;;;;;;;;;5015524;28;20053;-65
2021/08/28 00:50:35;;;;;;;9.18;4.68;;;;;;;;;;5033912;28;20056;-64
2021/08/28 00:53:02;;;;;;;10.20;4.55;;;;;;;;;;5022272;28;20402;-64
2021/08/28 00:55:27;;;;;;;7.20;4.53;;;;;;;;;;5023945;28;20038;-64
2021/08/28 00:57:53;;;;;;;7.32;4.43;;;;;;;;;;5021934;28;20090;-64
2021/08/28 01:00:19;;;;;;;8.13;4.25;;;;;;;;;;5026669;28;20740;-64
2021/08/28 01:02:46;;;;;;;8.38;4.13;;;;;;;;;;5022569;28;20030;-64
2021/08/28 01:05:20;;;;;;;7.50;4.15;;;;;;;;;;5025842;28;20029;-63
2021/08/28 01:08:07;;;;;;;6.65;3.53;;;;;;;;;;5022840;28;20083;-65
2021/08/28 01:10:43;;;;;;;6.97;4.03;;;;;;;;;;5031871;28;20350;-64
2021/08/28 01:13:13;;;;;;;7.78;4.35;;;;;;;;;;5024718;28;20105;-65
2021/08/28 01:15:39;;;;;;;8.02;4.10;;;;;;;;;;5029915;28;20030;-64
2021/08/28 01:18:05;;;;;;;9.73;4.70;;;;;;;;;;5031657;28;20034;-65
2021/08/28 01:20:36;;;;;;;7.75;4.13;;;;;;;;;;5033725;28;20029;-64
2021/08/28 01:23:03;;;;;;;6.53;4.05;;;;;;;;;;5031638;28;20021;-64
2021/08/28 01:25:29;;;;;;;6.07;3.90;;;;;;;;;;5030047;28;20053;-64
2021/08/28 01:28:07;;;;;;;6.43;3.58;;;;;;;;;;5024896;28;20033;-64
2021/08/28 01:30:33;;;;;;;9.23;4.15;;;;;;;;;;5019546;28;20544;-65
2021/08/28 01:32:58;;;;;;;7.18;3.85;;;;;;;;;;5031785;28;20021;-64
2021/08/28 01:35:24;;;;;;;8.70;4.38;;;;;;;;;;5031581;28;20030;-64
2021/08/28 01:37:49;;;;;;;7.65;3.90;;;;;;;;;;5024239;28;21478;-65
2021/08/28 01:40:15;;;;;;;6.20;3.80;;;;;;;;;;5024978;28;20103;-64
2021/08/28 01:42:41;;;;;;;9.40;4.20;;;;;;;;;;5031143;28;20407;-64
2021/08/28 01:45:11;;;;;;;6.45;4.25;;;;;;;;;;5023025;28;20094;-64
2021/08/28 01:47:37;;;;;;;7.95;4.80;;;;;;;;;;5020631;28;20017;-65
2021/08/28 01:50:02;;;;;;;8.75;4.93;;;;;;;;;;5029175;28;20112;-64
2021/08/28 01:52:27;;;;;;;10.70;4.68;;;;;;;;;;5024344;28;20013;-65
2021/08/28 01:54:53;;;;;;;7.30;4.50;;;;;;;;;;5028738;28;20048;-64
2021/08/28 01:57:18;;;;;;;9.40;4.93;;;;;;;;;;5029284;28;20315;-65
2021/08/28 01:59:43;;;;;;;8.07;5.03;;;;;;;;;;5022265;28;20105;-65
2021/08/28 02:02:09;;;;;;;9.98;5.68;;;;;;;;;;5021779;28;20010;-64
2021/08/28 02:04:35;;;;;;;8.65;5.00;;;;;;;;;;5022806;28;20363;-64
2021/08/28 02:07:09;;;;;;;14.65;6.15;;;;;;;;;;5030547;28;20873;-64
2021/08/28 02:09:37;;;;;;;9.38;4.57;;;;;;;;;;5025294;28;20041;-64
2021/08/28 02:12:07;;;;;;;8.90;6.07;;;;;;;;;;5029900;28;20136;-64
2021/08/28 02:14:35;;;;;;;12.75;6.82;;;;;;;;;;5023624;28;20033;-64
2021/08/28 02:17:02;;;;;;;8.85;5.85;;;;;;;;;;5025725;28;20082;-64
2021/08/28 02:19:30;;;;;;;12.30;6.70;;;;;;;;;;5029191;28;20040;-63
2021/08/28 02:21:58;;;;;;;11.43;7.10;;;;;;;;;;5027555;28;20025;-64
2021/08/28 02:24:26;;;;;;;14.27;6.82;;;;;;;;;;5026589;28;20384;-64
2021/08/28 02:26:55;;;;;;;10.82;7.50;;;;;;;;;;5020482;28;20034;-64
2021/08/28 02:29:28;;;;;;;12.90;6.93;;;;;;;;;;5022126;28;20030;-64
2021/08/28 02:31:58;;;;;;;15.82;7.13;;;;;;;;;;5017288;28;20131;-64
2021/08/28 02:34:23;;;;;;;11.05;6.93;;;;;;;;;;5028684;28;20024;-65
2021/08/28 02:36:49;;;;;;;14.38;7.47;;;;;;;;;;5031451;28;20029;-64
2021/08/28 02:39:16;;;;;;;17.02;8.02;;;;;;;;;;5029187;28;20884;-64
2021/08/28 02:41:42;;;;;;;13.70;7.68;;;;;;;;;;5022389;28;20045;-64
2021/08/28 02:44:08;;;;;;;13.15;6.93;;;;;;;;;;5028438;28;20174;-64
2021/08/28 02:46:34;;;;;;;12.60;7.38;;;;;;;;;;5023864;28;20531;-65
2021/08/28 02:49:00;;;;;;;13.32;6.90;;;;;;;;;;5027380;28;20026;-64
2021/08/28 02:51:27;;;;;;;14.48;7.70;;;;;;;;;;5025831;28;20021;-64
2021/08/28 02:53:53;;;;;;;12.15;7.32;;;;;;;;;;5012454;28;20124;-64
2021/08/28 02:56:20;;;;;;;14.63;8.50;;;;;;;;;;5026056;28;20187;-66
2021/08/28 02:58:46;;;;;;;12.35;6.75;;;;;;;;;;5025358;28;20440;-65
2021/08/28 03:01:12;;;;;;;11.45;6.60;;;;;;;;;;5026317;28;20116;-64
2021/08/28 03:03:38;;;;;;;11.32;7.05;;;;;;;;;;5026044;28;20092;-65
2021/08/28 03:06:03;;;;;;;9.82;6.28;;;;;;;;;;5020045;28;20030;-64
2021/08/28 03:08:28;;;;;;;11.57;6.57;;;;;;;;;;5029431;28;20024;-64
2021/08/28 03:10:54;;;;;;;13.00;7.20;;;;;;;;;;5024024;28;20440;-64
2021/08/28 03:13:19;;;;;;;11.13;6.50;;;;;;;;;;5018920;28;20463;-64
2021/08/28 03:15:45;;;;;;;14.15;6.78;;;;;;;;;;5030062;28;20472;-65
2021/08/28 03:18:11;;;;;;;11.15;6.78;;;;;;;;;;5028940;28;20056;-64
2021/08/28 03:20:37;;;;;;;10.75;6.15;;;;;;;;;;5030826;28;20477;-65
2021/08/28 03:23:02;;;;;;;10.40;5.90;;;;;;;;;;5017996;28;20018;-65
2021/08/28 03:25:28;;;;;;;12.90;6.13;;;;;;;;;;5025365;28;20131;-64
2021/08/28 03:27:54;;;;;;;9.63;5.63;;;;;;;;;;5020555;28;20036;-64
2021/08/28 03:30:20;;;;;;;9.73;5.50;;;;;;;;;;5023732;28;20107;-65
2021/08/28 03:32:46;;;;;;;11.35;6.22;;;;;;;;;;5028352;28;20014;-65
2021/08/28 03:35:12;;;;;;;10.75;6.25;;;;;;;;;;5020107;28;20041;-64
2021/08/28 03:37:39;;;;;;;10.55;5.78;;;;;;;;;;5025651;28;20180;-64
2021/08/28 03:40:04;;;;;;;10.27;6.40;;;;;;;;;;5027304;28;20064;-64
2021/08/28 03:42:30;;;;;;;10.73;6.32;;;;;;;;;;5018249;28;20108;-64
2021/08/28 03:44:58;;;;;;;10.55;6.43;;;;;;;;;;5024122;28;20191;-65
2021/08/28 03:47:24;;;;;;;9.93;5.57;;;;;;;;;;5021327;28;20420;-64
2021/08/28 03:49:49;;;;;;;10.07;5.32;;;;;;;;;;5025713;28;20128;-65
2021/08/28 03:52:14;;;;;;;10.57;6.13;;;;;;;;;;5027458;28;20045;-65
2021/08/28 03:54:39;;;;;;;10.60;5.90;;;;;;;;;;5026477;28;20045;-65
2021/08/28 03:57:04;;;;;;;9.98;5.50;;;;;;;;;;5024322;28;20030;-65
2021/08/28 03:59:29;;;;;;;9.38;5.15;;;;;;;;;;5029946;28;20392;-65
2021/08/28 04:01:55;;;;;;;15.93;6.10;;;;;;;;;;5021609;28;20022;-65
2021/08/28 04:04:20;;;;;;;10.13;5.97;;;;;;;;;;5024260;28;20128;-65
2021/08/28 04:06:45;;;;;;;11.20;6.20;;;;;;;;;;5027172;28;20018;-65
2021/08/28 04:09:10;;;;;;;12.23;6.40;;;;;;;;;;5028114;28;20055;-65
2021/08/28 04:11:35;;;;;;;11.23;5.95;;;;;;;;;;5028291;28;20568;-65
2021/08/28 04:14:01;;;;;;;9.85;6.03;;;;;;;;;;5022985;28;20030;-64
2021/08/28 04:16:26;;;;;;;11.35;5.70;;;;;;;;;;5023595;28;20033;-64
2021/08/28 04:18:51;;;;;;;10.45;6.78;;;;;;;;;;5022229;28;20028;-64
2021/08/28 04:21:16;;;;;;;10.70;5.87;;;;;;;;;;5037610;28;20389;-65
2021/08/28 04:23:41;;;;;;;15.85;5.95;;;;;;;;;;5026255;28;20287;-65
2021/08/28 04:26:06;;;;;;;13.65;6.13;;;;;;;;;;5028789;28;20025;-66
2021/08/28 04:28:32;;;;;;;11.27;6.03;;;;;;;;;;5022952;28;20017;-64
2021/08/28 04:30:57;;;;;;;11.30;6.45;;;;;;;;;;5026086;28;20463;-64
2021/08/28 04:33:22;;;;;;;11.18;6.30;;;;;;;;;;5027000;28;20037;-66
2021/08/28 04:35:47;;;;;;;9.20;5.28;;;;;;;;;;5027257;28;20033;-64
2021/08/28 04:38:13;;;;;;;10.15;6.22;;;;;;;;;;5024145;28;20119;-65
2021/08/28 04:40:38;;;;;;;12.95;6.88;;;;;;;;;;5026246;28;20068;-64
2021/08/28 04:43:03;;;;;;;12.00;6.30;;;;;;;;;;5028486;28;20030;-65
2021/08/28 04:45:29;;;;;;;10.15;5.95;;;;;;;;;;5024046;28;20441;-64
2021/08/28 04:47:54;;;;;;;11.50;6.28;;;;;;;;;;5025288;28;20033;-65
2021/08/28 04:50:19;;;;;;;12.00;6.13;;;;;;;;;;5030114;28;20074;-65
2021/08/28 04:52:44;;;;;;;11.75;6.00;;;;;;;;;;5024079;28;20275;-66
2021/08/28 04:55:09;;;;;;;12.23;6.07;;;;;;;;;;5016399;28;20033;-65
2021/08/28 04:57:34;;;;;;;12.13;6.28;;;;;;;;;;5024129;28;20388;-65
2021/08/28 04:59:59;;;;;;;11.05;6.05;;;;;;;;;;5026243;28;20109;-65
2021/08/28 05:02:25;;;;;;;11.38;6.22;;;;;;;;;;5024716;28;20083;-65
2021/08/28 05:04:50;;;;;;;13.85;6.93;;;;;;;;;;5028772;28;20029;-64
2021/08/28 05:07:15;;;;;;;11.77;6.25;;;;;;;;;;5025387;28;20030;-65
2021/08/28 05:09:40;;;;;;;14.02;6.93;;;;;;;;;;5028153;28;20137;-64
2021/08/28 05:12:05;;;;;;;13.15;7.13;;;;;;;;;;5023151;28;20026;-65
2021/08/28 05:14:31;;;;;;;12.15;6.60;;;;;;;;;;5022589;28;20041;-65
2021/08/28 05:16:56;;;;;;;11.93;6.50;;;;;;;;;;5024981;28;20053;-66
2021/08/28 05:19:21;;;;;;;10.90;6.18;;;;;;;;;;5022799;28;20156;-64
2021/08/28 05:21:46;;;;;;;10.15;5.93;;;;;;;;;;5021127;28;20377;-64
2021/08/28 05:24:12;;;;;;;11.75;6.38;;;;;;;;;;5011187;28;20083;-65
2021/08/28 05:26:37;;;;;;;13.18;7.88;;;;;;;;;;5013140;28;20115;-65
2021/08/28 05:29:02;;;;;;;14.73;6.97;;;;;;;;;;5017270;28;20481;-65
2021/08/28 05:31:27;;;;;;;13.95;7.65;;;;;;;;;;5022201;28;20278;-65
2021/08/28 05:33:52;;;;;;;13.30;6.70;;;;;;;;;;5016375;28;20554;-65
2021/08/28 05:36:18;;;;;;;12.93;6.60;;;;;;;;;;5017412;28;20091;-64
2021/08/28 05:38:43;;;;;;;12.73;6.67;;;;;;;;;;5022366;28;20017;-65
2021/08/28 05:41:08;;;;;;;13.85;6.90;;;;;;;;;;5016993;28;20388;-65
2021/08/28 05:43:34;;;;;;;14.25;7.88;;;;;;;;;;5018036;28;20017;-66
2021/08/28 05:45:59;;;;;;;13.48;7.07;;;;;;;;;;5018969;28;20155;-65
2021/08/28 05:48:24;;;;;;;13.30;7.43;;;;;;;;;;5024524;28;20051;-65
2021/08/28 05:50:49;;;;;;;11.70;7.00;;;;;;;;;;5022091;28;20033;-65
2021/08/28 05:53:15;;;;;;;13.20;8.05;;;;;;;;;;5018035;28;20010;-65
2021/08/28 05:55:40;;;;;;;14.77;7.50;;;;;;;;;;5025550;28;20460;-65
2021/08/28 05:58:05;;;;;;;14.10;6.97;;;;;;;;;;5027366;28;20040;-65
2021/08/28 06:00:30;;;;;;;13.00;6.77;;;;;;;;;;5020048;28;20655;-64
2021/08/28 06:02:55;;;;;;;13.63;7.30;;;;;;;;;;5022787;28;20362;-65
2021/08/28 06:05:20;;;;;;;15.05;7.88;;;;;;;;;;5024013;28;20025;-65
2021/08/28 06:07:46;;;;;;;11.38;6.95;;;;;;;;;;5023476;28;20388;-65
2021/08/28 06:10:11;;;;;;;13.25;7.13;;;;;;;;;;5019716;28;20044;-65
2021/08/28 06:12:36;;;;;;;13.48;7.80;;;;;;;;;;5025643;28;20076;-66
2021/08/28 06:15:02;;;;;;;8.02;5.38;;;;;;;;;;5018202;28;20029;-64
2021/08/28 06:17:27;;;;;;;10.52;5.53;;;;;;;;;;5017634;28;20436;-65
2021/08/28 06:19:52;;;;;;;9.87;5.40;;;;;;;;;;5027244;28;20033;-65
2021/08/28 06:22:18;;;;;;;10.32;5.38;;;;;;;;;;5016926;28;20723;-64
2021/08/28 06:24:43;;;;;;;8.02;5.07;;;;;;;;;;5024493;28;20026;-65
2021/08/28 06:27:08;;;;;;;8.73;4.57;;;;;;;;;;5023573;28;20022;-65
2021/08/28 06:29:34;;;;;;;6.90;4.28;;;;;;;;;;5019830;28;20021;-65
2021/08/28 06:31:59;;;;;;;6.25;3.42;;;;;;;;;;5020141;28;20105;-65
2021/08/28 06:34:24;;;;;;;6.75;2.90;;;;;;;;;;5027598;28;20026;-65
2021/08/28 06:36:49;;;;;;;5.45;3.25;;;;;;;;;;5020443;28;20048;-65
2021/08/28 06:39:15;;;;;;;4.18;2.25;;;;;;;;;;5026966;28;20546;-66
2021/08/28 06:41:40;;;;;;;5.00;2.60;;;;;;;;;;5024897;28;20065;-65
2021/08/28 06:44:05;;;;;;;4.07;2.83;;;;;;;;;;5021942;28;20044;-64
2021/08/28 06:46:30;;;;;;;4.28;2.42;;;;;;;;;;5024432;28;20021;-65
2021/08/28 06:48:56;;;;;;;5.72;2.75;;;;;;;;;;5031162;28;20025;-65
2021/08/28 06:51:21;;;;;;;3.58;2.40;;;;;;;;;;5035338;28;20029;-64
2021/08/28 06:53:49;;;;;;;4.30;2.47;;;;;;;;;;5028788;28;20017;-65
2021/08/28 06:56:14;;;;;;;3.40;2.05;;;;;;;;;;5030307;28;20033;-65
2021/08/28 06:58:39;;;;;;;3.53;2.00;;;;;;;;;;5029246;28;20021;-66
2021/08/28 07:01:04;;;;;;;3.08;2.20;;;;;;;;;;5027516;28;20073;-66
2021/08/28 07:03:29;;;;;;;3.15;2.00;;;;;;;;;;5028127;28;20650;-65
2021/08/28 07:05:54;;;;;;;3.92;1.75;;;;;;;;;;5015799;28;20127;-64
2021/08/28 07:08:20;;;;;;;2.72;1.95;;;;;;;;;;5019759;28;20041;-64
2021/08/28 07:10:46;;;;;;;2.63;1.85;;;;;;;;;;5020130;28;20029;-65
2021/08/28 07:13:11;;;;;;;2.40;1.80;;;;;;;;;;5023277;28;20017;-65
2021/08/28 07:15:36;;;;;;;2.60;1.75;;;;;;;;;;5026343;28;20041;-66
2021/08/28 07:18:02;;;;;;;3.10;2.22;;;;;;;;;;5030181;28;20048;-65
2021/08/28 07:20:27;;;;;;;3.83;2.25;;;;;;;;;;5027312;28;20109;-63
2021/08/28 07:22:52;;;;;;;3.08;1.95;;;;;;;;;;5026348;28;20022;-64
2021/08/28 07:25:18;;;;;;;3.15;1.90;;;;;;;;;;5026597;28;20477;-63
2021/08/28 07:27:43;;;;;;;2.50;1.90;;;;;;;;;;5027717;28;20380;-62
2021/08/28 07:30:09;;;;;;;2.78;2.08;;;;;;;;;;5029520;28;20031;-63
2021/08/28 07:32:34;;;;;;;2.13;1.48;;;;;;;;;;5027720;28;20021;-63
2021/08/28 07:34:59;;;;;;;4.03;2.22;;;;;;;;;;5029838;28;20380;-63
2021/08/28 07:37:24;;;;;;;3.30;1.97;;;;;;;;;;5029225;28;20896;-63
2021/08/28 07:39:50;;;;;;;3.05;2.10;;;;;;;;;;5029980;28;20289;-63
2021/08/28 07:42:15;;;;;;;3.47;2.50;;;;;;;;;;5024944;28;20439;-63
2021/08/28 07:44:40;;;;;;;5.15;2.35;;;;;;;;;;5029245;28;20067;-63
2021/08/28 07:47:05;;;;;;;3.53;2.40;;;;;;;;;;5029194;28;20017;-63
2021/08/28 07:49:30;;;;;;;3.53;2.30;;;;;;;;;;5028527;28;20028;-63
2021/08/28 07:51:56;;;;;;;4.47;2.20;;;;;;;;;;5035441;28;20048;-63
2021/08/28 07:54:21;;;;;;;5.72;2.55;;;;;;;;;;5028702;28;20380;-62
2021/08/28 07:56:46;;;;;;;3.80;2.30;;;;;;;;;;5029296;28;20116;-63
2021/08/28 07:59:11;;;;;;;4.20;2.38;;;;;;;;;;5027575;28;20049;-62
2021/08/28 08:01:36;;;;;;;4.65;2.30;;;;;;;;;;5016827;28;20382;-63
2021/08/28 08:04:02;;;;;;;3.47;2.40;;;;;;;;;;5024375;28;20029;-62
2021/08/28 08:06:27;;;;;;;5.10;2.20;;;;;;;;;;5025421;28;20448;-61
2021/08/28 08:08:52;;;;;;;3.03;2.20;;;;;;;;;;5024116;28;20033;-61
2021/08/28 08:11:17;;;;;;;3.08;2.30;;;;;;;;;;5022673;28;20079;-61
2021/08/28 08:13:43;;;;;;;3.13;2.22;;;;;;;;;;5027778;28;20124;-62
2021/08/28 08:16:08;;;;;;;3.28;2.35;;;;;;;;;;5027371;28;20065;-62
2021/08/28 08:18:34;;;;;;;3.17;2.03;;;;;;;;;;5022294;28;20022;-62
2021/08/28 08:20:59;;;;;;;3.60;2.25;;;;;;;;;;5030411;28;20420;-61
2021/08/28 08:23:24;;;;;;;3.13;2.10;;;;;;;;;;5024058;28;20026;-62
2021/08/28 08:25:49;;;;;;;4.10;2.40;;;;;;;;;;5017085;28;20021;-62
2021/08/28 08:28:14;;;;;;;2.95;2.15;;;;;;;;;;5026835;28;20022;-62
2021/08/28 08:30:40;;;;;;;2.97;2.10;;;;;;;;;;5018723;28;20025;-61
2021/08/28 08:33:05;;;;;;;3.60;2.30;;;;;;;;;;5023972;28;20421;-62
2021/08/28 08:35:30;;;;;;;3.40;2.17;;;;;;;;;;5026577;28;20353;-61
2021/08/28 08:37:57;;;;;;;3.13;2.03;;;;;;;;;;5028572;28;20268;-61
2021/08/28 08:40:22;;;;;;;3.42;2.05;;;;;;;;;;5028537;28;20303;-61
2021/08/28 08:42:48;;;;;;;2.90;2.00;;;;;;;;;;5020112;28;20026;-62
2021/08/28 08:45:14;;;;;;;3.15;2.00;;;;;;;;;;5027660;28;20100;-62
2021/08/28 08:47:39;;;;;;;3.22;2.13;;;;;;;;;;5021922;28;20063;-63
2021/08/28 08:50:05;;;;;;;4.20;2.53;;;;;;;;;;5026903;28;20040;-62
2021/08/28 08:52:31;;;;;;;3.78;2.33;;;;;;;;;;5025182;28;20418;-62
2021/08/28 08:54:57;;;;;;;2.97;1.88;;;;;;;;;;5020539;28;20042;-61
2021/08/28 08:57:22;;;;;;;3.20;2.20;;;;;;;;;;5027385;28;20100;-61
2021/08/28 08:59:48;;;;;;;5.63;2.00;;;;;;;;;;5024266;28;20087;-62
2021/08/28 09:02:13;;;;;;;3.92;2.83;;;;;;;;;;5022676;28;20048;-62
2021/08/28 09:04:38;;;;;;;3.30;2.40;;;;;;;;;;5023686;28;20099;-61
2021/08/28 09:07:04;;;;;;;5.00;2.30;;;;;;;;;;5024207;28;20267;-61
2021/08/28 09:09:29;;;;;;;3.28;2.25;;;;;;;;;;5028360;28;20133;-61
2021/08/28 09:12:02;;;;;;;7.80;2.20;;;;;;;;;;5028472;28;20093;-62
2021/08/28 09:14:27;;;;;;;2.58;1.90;;;;;;;;;;5028020;28;20766;-61
2021/08/28 09:16:53;;;;;;;3.47;2.00;;;;;;;;;;5027960;28;20032;-61
2021/08/28 09:19:18;;;;;;;3.60;2.15;;;;;;;;;;5023373;28;20160;-62
2021/08/28 09:21:44;;;;;;;3.38;2.30;;;;;;;;;;5030675;28;20037;-63
2021/08/28 09:24:10;;;;;;;2.72;2.00;;;;;;;;;;5021341;28;20507;-62
2021/08/28 09:26:38;;;;;;;3.90;2.28;;;;;;;;;;5027910;28;20018;-61
2021/08/28 09:29:04;;;;;;;3.22;1.98;;;;;;;;;;5031637;28;20029;-62
2021/08/28 09:31:39;;;;;;;2.90;1.88;;;;;;;;;;5031596;28;20423;-62
2021/08/28 09:34:13;;;;;;;2.60;1.80;;;;;;;;;;5031788;28;20052;-63
2021/08/28 09:36:38;;;;;;;2.55;1.77;;;;;;;;;;5031818;28;20433;-62
2021/08/28 09:39:03;;;;;;;5.03;2.00;;;;;;;;;;5031685;28;20108;-62
2021/08/28 09:41:29;;;;;;;1.90;1.52;;;;;;;;;;5031247;28;20045;-61
2021/08/28 09:44:02;;;;;;;2.55;1.70;;;;;;;;;;5031508;28;20122;-62
2021/08/28 09:46:28;;;;;;;3.88;1.90;;;;;;;;;;5031721;28;20100;-63
2021/08/28 09:49:00;;;;;;;3.13;1.80;;;;;;;;;;5031845;28;20109;-62
2021/08/28 09:51:25;;;;;;;3.42;1.67;;;;;;;;;;5031719;28;20373;-61
2021/08/28 09:54:00;;;;;;;4.95;1.58;;;;;;;;;;5024987;28;20500;-62
2021/08/28 09:56:27;;;;;;;3.88;1.50;;;;;;;;;;5030406;28;20040;-61
2021/08/28 09:58:52;;;;;;;2.72;1.40;;;;;;;;;;5029714;28;20025;-62
2021/08/28 10:01:20;;;;;;;2.40;1.33;;;;;;;;;;5029837;28;20788;-62
2021/08/28 10:03:56;;;;;;;2.55;1.40;;;;;;;;;;5023519;28;20076;-62
2021/08/28 10:06:21;;;;;;;2.90;1.40;;;;;;;;;;5025470;28;20068;-62
2021/08/28 10:08:46;;;;;;;2.45;1.38;;;;;;;;;;5030791;28;20049;-61
2021/08/28 10:11:11;;;;;;;2.85;1.50;;;;;;;;;;5018431;28;20337;-62
2021/08/28 10:13:37;;;;;;;3.50;1.10;;;;;;;;;;5031372;28;20021;-62
2021/08/28 10:16:03;;;;;;;2.28;1.42;;;;;;;;;;5029090;28;20040;-61
2021/08/28 10:18:28;;;;;;;2.33;1.20;;;;;;;;;;5019234;28;20021;-62
2021/08/28 10:20:55;;;;;;;2.10;1.27;;;;;;;;;;5029446;28;20029;-63
2021/08/28 10:23:21;;;;;;;3.17;1.50;;;;;;;;;;5031020;28;20017;-63
2021/08/28 10:25:47;;;;;;;2.35;1.20;;;;;;;;;;5031080;28;20172;-61
2021/08/28 10:28:13;;;;;;;1.83;1.30;;;;;;;;;;5030961;28;20500;-62
2021/08/28 10:30:38;;;;;;;1.48;1.08;;;;;;;;;;5028418;28;20033;-62
2021/08/28 10:33:03;;;;;;;2.15;1.38;;;;;;;;;;5018041;28;20041;-63
2021/08/28 10:35:29;;;;;;;2.83;1.33;;;;;;;;;;5029721;28;20040;-61
2021/08/28 10:37:54;;;;;;;1.88;1.20;;;;;;;;;;5030288;28;20386;-61
2021/08/28 10:40:19;;;;;;;2.28;1.25;;;;;;;;;;5024122;28;20145;-61
2021/08/28 10:42:45;;;;;;;2.72;1.52;;;;;;;;;;5025350;28;20040;-61
2021/08/28 10:45:11;;;;;;;2.05;1.50;;;;;;;;;;5025714;28;20091;-61
2021/08/28 10:47:36;;;;;;;2.85;1.67;;;;;;;;;;5024657;28;20594;-61
2021/08/28 10:50:09;;;;;;;3.80;1.30;;;;;;;;;;5032636;28;20060;-62
2021/08/28 10:52:35;;;;;;;2.03;0.90;;;;;;;;;;5025185;28;20018;-62
2021/08/28 10:55:08;;;;;;;1.65;0.93;;;;;;;;;;5024722;28;20037;-62
2021/08/28 10:57:33;;;;;;;2.10;0.70;;;;;;;;;;5022559;28;20025;-62
2021/08/28 11:00:00;;;;;;;0.80;0.55;;;;;;;;;;5026940;28;20020;-62
2021/08/28 11:02:45;;;;;;;2.80;0.60;;;;;;;;;;5030014;28;20452;-62
2021/08/28 11:05:14;;;;;;;5.13;0.75;;;;;;;;;;5020795;28;20030;-62
2021/08/28 11:07:41;;;;;;;0.70;0.40;;;;;;;;;;5029465;28;20030;-61
2021/08/28 11:10:09;;;;;;;0.68;0.47;;;;;;;;;;5021941;28;20125;-61
2021/08/28 11:12:47;;;;;;;0.95;0.55;;;;;;;;;;5022953;28;20150;-60
2021/08/28 11:15:24;;;;;;;0.40;0.40;;;;;;;;;;5023552;28;20134;-64
2021/08/28 11:17:49;;;;;;;1.10;0.57;;;;;;;;;;5024491;28;20025;-64
2021/08/28 11:20:20;;;;;;;1.65;1.00;;;;;;;;;;5026909;28;20087;-64
2021/08/28 11:22:45;;;;;;;1.00;0.90;;;;;;;;;;5021535;28;20029;-65
2021/08/28 11:25:12;;;;;;;2.65;0.80;;;;;;;;;;5020855;28;20026;-64
2021/08/28 11:27:38;;;;;;;2.20;1.00;;;;;;;;;;5017816;28;20377;-63
2021/08/28 11:30:04;;;;;;;2.13;0.90;;;;;;;;;;5020332;28;20025;-63
2021/08/28 11:32:29;;;;;;;2.20;1.25;;;;;;;;;;5013902;28;20036;-63
2021/08/28 11:34:57;;;;;;;1.90;1.00;;;;;;;;;;5018586;28;20037;-62
2021/08/28 11:37:26;;;;;;;2.85;1.10;;;;;;;;;;5019710;28;20045;-62
2021/08/28 11:39:52;;;;;;;1.52;0.80;;;;;;;;;;5028611;28;20030;-63
2021/08/28 11:42:17;;;;;;;2.17;1.27;;;;;;;;;;5029189;28;20018;-62
2021/08/28 11:44:50;;;;;;;0.90;0.70;;;;;;;;;;5022993;28;20029;-63
2021/08/28 11:47:15;;;;;;;1.58;0.80;;;;;;;;;;5028486;28;20272;-62
2021/08/28 11:49:40;;;;;;;1.85;0.70;;;;;;;;;;5027282;28;20026;-62
2021/08/28 11:52:06;;;;;;;1.05;0.77;;;;;;;;;;5028172;28;20120;-63
2021/08/28 11:54:31;;;;;;;1.98;0.70;;;;;;;;;;5029309;28;20032;-63
2021/08/28 11:56:57;;;;;;;1.27;0.70;;;;;;;;;;5025028;28;20433;-61
2021/08/28 11:59:32;;;;;;;4.97;1.00;;;;;;;;;;5022299;28;20034;-63
2021/08/28 12:01:57;;;;;;;1.13;0.95;;;;;;;;;;5029843;28;20025;-62
2021/08/28 12:04:22;;;;;;;1.00;0.70;;;;;;;;;;5027609;28;20401;-63
2021/08/28 12:06:51;;;;;;;1.48;0.88;;;;;;;;;;5028291;28;20041;-62
2021/08/28 12:09:17;;;;;;;1.40;0.90;;;;;;;;;;5028395;28;20465;-63
2021/08/28 12:11:46;;;;;;;1.88;1.20;;;;;;;;;;5029802;28;20267;-63
2021/08/28 12:14:12;;;;;;;1.30;0.90;;;;;;;;;;5025255;28;20381;-63
2021/08/28 12:16:38;;;;;;;1.15;0.90;;;;;;;;;;5027977;28;20077;-63
2021/08/28 12:19:03;;;;;;;2.15;1.20;;;;;;;;;;5028897;28;20021;-63
2021/08/28 12:21:29;;;;;;;1.42;1.10;;;;;;;;;;5023719;28;20083;-63
2021/08/28 12:23:54;;;;;;;1.65;1.10;;;;;;;;;;5025776;28;20389;-63
2021/08/28 12:26:20;;;;;;;1.42;1.00;;;;;;;;;;5021236;28;20033;-63
2021/08/28 12:28:46;;;;;;;3.25;1.13;;;;;;;;;;5024072;28;20376;-63
2021/08/28 12:31:11;;;;;;;2.42;1.20;;;;;;;;;;5021432;28;20033;-62
2021/08/28 12:33:36;;;;;;;1.48;0.88;;;;;;;;;;5027694;28;20061;-62
2021/08/28 12:36:01;;;;;;;1.63;1.15;;;;;;;;;;5025690;28;20438;-61
2021/08/28 12:38:30;;;;;;;1.60;0.88;;;;;;;;;;5025757;28;20025;-62
2021/08/28 12:40:55;;;;;;;2.30;0.73;;;;;;;;;;5027766;28;20045;-62
2021/08/28 12:43:21;;;;;;;1.58;0.60;;;;;;;;;;5023322;28;20049;-63
2021/08/28 12:45:46;;;;;;;0.95;0.80;;;;;;;;;;5021934;28;20034;-62
2021/08/28 12:48:15;;;;;;;1.85;0.70;;;;;;;;;;5023986;28;20072;-63
2021/08/28 12:50:40;;;;;;;3.33;0.70;;;;;;;;;;5027760;28;20033;-63
2021/08/28 12:53:06;;;;;;;0.68;0.50;;;;;;;;;;5022399;28;20476;-63
2021/08/28 12:55:33;;;;;;;0.80;0.70;;;;;;;;;;5027903;28;20037;-63
2021/08/28 12:58:03;;;;;;;0.88;0.55;;;;;;;;;;5026933;28;20064;-63
2021/08/28 13:00:30;;;;;;;0.73;0.63;;;;;;;;;;5025011;28;20033;-63
2021/08/28 13:02:55;;;;;;;1.98;0.80;;;;;;;;;;5027553;28;20108;-63
2021/08/28 13:05:30;;;;;;;1.02;0.63;;;;;;;;;;5032028;28;20457;-63
2021/08/28 13:07:56;;;;;;;1.67;1.00;;;;;;;;;;5027549;28;20083;-63
2021/08/28 13:10:22;;;;;;;1.83;1.10;;;;;;;;;;5027178;28;20044;-62
2021/08/28 13:12:47;;;;;;;2.53;1.30;;;;;;;;;;5026730;28;20030;-63
2021/08/28 13:15:14;;;;;;;2.03;1.30;;;;;;;;;;5031951;28;20041;-63
2021/08/28 13:17:39;;;;;;;3.08;1.23;;;;;;;;;;5032100;28;20355;-63
2021/08/28 13:20:09;;;;;;;1.88;1.10;;;;;;;;;;5025835;28;20029;-63
2021/08/28 13:22:38;;;;;;;2.67;1.13;;;;;;;;;;5030834;28;20232;-62
2021/08/28 13:25:04;;;;;;;1.63;1.08;;;;;;;;;;5031913;28;20061;-63
2021/08/28 13:27:29;;;;;;;2.00;1.00;;;;;;;;;;5027816;28;20526;-61
2021/08/28 13:30:13;;;;;;;4.10;1.60;;;;;;;;;;5026632;28;20038;-62
2021/08/28 13:32:50;;;;;;;1.45;1.08;;;;;;;;;;5030438;28;20029;-63
2021/08/28 13:35:15;;;;;;;1.55;0.90;;;;;;;;;;5029749;28;20037;-62
2021/08/28 13:37:40;;;;;;;3.33;1.00;;;;;;;;;;5030654;28;20025;-62
2021/08/28 13:40:05;;;;;;;1.50;1.17;;;;;;;;;;5028292;28;20053;-63
2021/08/28 13:42:30;;;;;;;1.30;1.00;;;;;;;;;;5030503;28;20067;-63
2021/08/28 13:44:56;;;;;;;1.88;1.15;;;;;;;;;;5029744;28;20033;-63
2021/08/28 13:47:21;;;;;;;1.58;1.30;;;;;;;;;;5031350;28;20238;-61
2021/08/28 13:49:47;;;;;;;1.83;1.02;;;;;;;;;;5030919;28;20029;-61
2021/08/28 13:52:14;;;;;;;1.80;1.00;;;;;;;;;;5028117;28;20117;-62
2021/08/28 13:54:39;;;;;;;1.98;1.10;;;;;;;;;;5028276;28;20037;-62
2021/08/28 13:57:05;;;;;;;2.67;1.45;;;;;;;;;;5029516;28;20033;-62
2021/08/28 13:59:30;;;;;;;1.85;1.20;;;;;;;;;;5029416;28;20028;-62
2021/08/28 14:01:55;;;;;;;2.22;1.00;;;;;;;;;;5024911;28;20132;-62
2021/08/28 14:04:20;;;;;;;2.97;1.10;;;;;;;;;;5022270;28;20157;-62
2021/08/28 14:06:45;;;;;;;4.28;1.10;;;;;;;;;;5027450;28;20013;-62
2021/08/28 14:09:10;;;;;;;2.70;1.20;;;;;;;;;;5030367;28;20079;-62
2021/08/28 14:11:35;;;;;;;1.63;1.17;;;;;;;;;;5031254;28;20029;-62
2021/08/28 14:14:01;;;;;;;2.08;1.20;;;;;;;;;;5031005;28;20365;-62
2021/08/28 14:16:26;;;;;;;1.67;1.17;;;;;;;;;;5031295;28;20420;-63
2021/08/28 14:18:51;;;;;;;1.65;1.20;;;;;;;;;;5024094;28;20032;-63
2021/08/28 14:21:16;;;;;;;2.67;1.60;;;;;;;;;;5028641;28;20465;-62
2021/08/28 14:23:42;;;;;;;1.60;1.00;;;;;;;;;;5026323;28;20022;-62
2021/08/28 14:26:07;;;;;;;1.63;0.90;;;;;;;;;;5027855;28;20083;-62
2021/08/28 14:28:32;;;;;;;1.55;1.00;;;;;;;;;;5027440;28;20033;-63
2021/08/28 14:30:57;;;;;;;1.90;1.05;;;;;;;;;;5028873;28;20430;-63
2021/08/28 14:33:24;;;;;;;1.00;0.90;;;;;;;;;;5029917;28;20113;-63